Time,TemperatureF,DewpointF,PressureIn,WindDirection,WindDirectionDegrees,WindSpeedMPH,WindSpeedGustMPH,Humidity,HourlyPrecipIn,Conditions,Clouds,dailyrainin,SoftwareType,DateUTC
2013-04-26 00:22:00,48.0,45.0,30.13,SSE,161,0.0,0.0,91,0.00,,,0.00,,2013-04-26 07:22:00,
2013-04-26 00:32:00,48.0,45.0,30.13,SSE,161,0.0,0.0,91,0.00,,,0.00,,2013-04-26 07:32:00,
2013-04-26 00:42:00,48.0,45.0,30.13,SSE,161,0.0,0.0,91,0.00,,,0.00,,2013-04-26 07:42:00,
2013-04-26 00:52:00,48.0,45.0,30.13,SSE,161,0.0,0.0,91,0.00,,,0.00,,2013-04-26 07:52:00,
2013-04-26 01:02:00,48.0,45.0,30.13,SSE,161,0.0,0.0,91,0.00,,,0.00,,2013-04-26 08:02:00,
2013-04-26 02:22:00,48.0,46.0,30.13,SSE,160,0.0,0.0,92,0.00,,,0.00,,2013-04-26 09:22:00,
2013-04-26 02:33:00,48.0,46.0,30.13,SSE,160,0.0,0.0,92,0.00,,,0.00,,2013-04-26 09:33:00,
2013-04-26 02:43:00,48.0,46.0,30.13,SSE,160,0.0,0.0,92,0.00,,,0.00,,2013-04-26 09:43:00,
2013-04-26 02:53:00,48.0,46.0,30.13,SSE,160,0.0,0.0,92,0.00,,,0.00,,2013-04-26 09:53:00,
2013-04-26 03:02:00,48.0,46.0,30.13,SSE,160,0.0,0.0,92,0.00,,,0.00,,2013-04-26 10:02:00,
2013-04-26 04:22:00,47.0,45.0,30.14,SSE,160,0.0,0.0,93,0.00,,,0.00,,2013-04-26 11:22:00,
2013-04-26 04:32:00,47.0,45.0,30.14,SSE,160,0.0,0.0,93,0.00,,,0.00,,2013-04-26 11:32:00,
2013-04-26 04:42:00,47.0,45.0,30.14,SSE,160,0.0,0.0,93,0.00,,,0.00,,2013-04-26 11:42:00,
2013-04-26 04:52:00,47.0,45.0,30.14,SSE,160,0.0,0.0,93,0.00,,,0.00,,2013-04-26 11:52:00,
2013-04-26 05:01:00,47.0,45.0,30.14,SSE,160,0.0,0.0,93,0.00,,,0.00,,2013-04-26 12:01:00,
2013-04-26 06:22:00,46.0,45.0,30.16,SSE,160,0.0,0.0,95,0.00,,,0.00,,2013-04-26 13:22:00,
2013-04-26 06:32:00,46.0,45.0,30.16,SSE,160,0.0,0.0,95,0.00,,,0.00,,2013-04-26 13:32:00,
2013-04-26 06:42:00,46.0,45.0,30.16,SSE,160,0.0,0.0,95,0.00,,,0.00,,2013-04-26 13:42:00,
2013-04-26 06:52:00,46.0,45.0,30.16,SSE,160,0.0,0.0,95,0.00,,,0.00,,2013-04-26 13:52:00,
2013-04-26 07:01:00,46.0,45.0,30.16,SSE,160,0.0,0.0,95,0.00,,,0.00,,2013-04-26 14:01:00,
2013-04-26 08:22:00,46.0,45.0,30.21,SSE,160,0.0,0.0,95,0.00,,,0.00,,2013-04-26 15:22:00,
2013-04-26 08:33:00,46.0,45.0,30.21,SSE,160,0.0,0.0,95,0.00,,,0.00,,2013-04-26 15:33:00,
2013-04-26 08:43:00,46.0,45.0,30.21,SSE,160,0.0,0.0,95,0.00,,,0.00,,2013-04-26 15:43:00,
2013-04-26 08:53:00,46.0,45.0,30.21,SSE,160,0.0,0.0,95,0.00,,,0.00,,2013-04-26 15:53:00,
2013-04-26 09:03:00,46.0,45.0,30.21,SSE,160,0.0,0.0,95,0.00,,,0.00,,2013-04-26 16:03:00,
2013-04-26 10:22:00,49.0,48.0,30.23,NNE,17,0.0,0.0,96,0.00,,,0.00,,2013-04-26 17:22:00,
2013-04-26 10:32:00,49.0,48.0,30.23,NNE,17,0.0,0.0,96,0.00,,,0.00,,2013-04-26 17:32:00,
2013-04-26 10:42:00,49.0,48.0,30.23,NNE,17,0.0,0.0,96,0.00,,,0.00,,2013-04-26 17:42:00,
2013-04-26 10:52:00,49.0,48.0,30.23,NNE,17,0.0,0.0,96,0.00,,,0.00,,2013-04-26 17:52:00,
2013-04-26 11:02:00,49.0,48.0,30.23,NNE,17,0.0,0.0,96,0.00,,,0.00,,2013-04-26 18:02:00,
2013-04-26 12:22:00,58.0,54.0,30.24,NNE,18,0.0,0.0,85,0.00,,,0.00,,2013-04-26 19:22:00,
2013-04-26 12:32:00,58.0,54.0,30.24,NNE,18,0.0,0.0,85,0.00,,,0.00,,2013-04-26 19:32:00,
2013-04-26 12:42:00,58.0,54.0,30.24,NNE,18,0.0,0.0,85,0.00,,,0.00,,2013-04-26 19:42:00,
2013-04-26 12:52:00,58.0,54.0,30.24,NNE,18,0.0,0.0,85,0.00,,,0.00,,2013-04-26 19:52:00,
2013-04-26 13:02:00,58.0,54.0,30.24,NNE,18,0.0,0.0,85,0.00,,,0.00,,2013-04-26 20:02:00,
2013-04-26 14:22:00,66.0,56.0,30.22,ENE,60,0.0,0.0,70,0.00,,,0.00,,2013-04-26 21:22:00,
2013-04-26 14:33:00,66.0,56.0,30.22,ENE,60,0.0,0.0,70,0.00,,,0.00,,2013-04-26 21:33:00,
2013-04-26 14:42:00,66.0,56.0,30.22,ENE,60,0.0,0.0,70,0.00,,,0.00,,2013-04-26 21:42:00,
2013-04-26 14:53:00,66.0,56.0,30.22,ENE,60,0.0,0.0,70,0.00,,,0.00,,2013-04-26 21:53:00,
2013-04-26 15:02:00,66.0,56.0,30.22,ENE,60,0.0,0.0,70,0.00,,,0.00,,2013-04-26 22:02:00,
2013-04-26 16:22:00,66.0,53.0,30.19,ENE,60,0.0,0.0,64,0.00,,,0.00,,2013-04-26 23:22:00,
2013-04-26 16:32:00,66.0,53.0,30.19,ENE,60,0.0,0.0,64,0.00,,,0.00,,2013-04-26 23:32:00,
2013-04-26 16:42:00,66.0,53.0,30.19,ENE,60,0.0,0.0,64,0.00,,,0.00,,2013-04-26 23:42:00,
2013-04-26 16:52:00,66.0,53.0,30.19,ENE,60,0.0,0.0,64,0.00,,,0.00,,2013-04-26 23:52:00,
2013-04-26 17:01:00,66.0,53.0,30.19,ENE,60,0.0,0.0,64,0.00,,,0.00,,2013-04-27 00:01:00,
2013-04-26 18:21:00,60.0,51.0,30.18,ENE,60,0.0,0.0,73,0.00,,,0.00,,2013-04-27 01:21:00,
2013-04-26 18:32:00,60.0,51.0,30.18,ENE,60,0.0,0.0,73,0.00,,,0.00,,2013-04-27 01:32:00,
2013-04-26 18:42:00,60.0,51.0,30.18,ENE,60,0.0,0.0,73,0.00,,,0.00,,2013-04-27 01:42:00,
2013-04-26 18:52:00,60.0,51.0,30.18,ENE,60,0.0,0.0,73,0.00,,,0.00,,2013-04-27 01:52:00,
2013-04-26 19:01:00,60.0,51.0,30.18,ENE,60,0.0,0.0,73,0.00,,,0.00,,2013-04-27 02:01:00,
2013-04-26 20:22:00,54.0,49.0,30.18,ENE,60,0.0,0.0,84,0.00,,,0.00,,2013-04-27 03:22:00,
2013-04-26 20:33:00,54.0,49.0,30.18,ENE,60,0.0,0.0,84,0.00,,,0.00,,2013-04-27 03:33:00,
2013-04-26 20:43:00,54.0,49.0,30.18,ENE,60,0.0,0.0,84,0.00,,,0.00,,2013-04-27 03:43:00,
2013-04-26 20:53:00,54.0,49.0,30.18,ENE,60,0.0,0.0,84,0.00,,,0.00,,2013-04-27 03:53:00,
2013-04-26 21:02:00,54.0,49.0,30.18,ENE,60,0.0,0.0,84,0.00,,,0.00,,2013-04-27 04:02:00,
2013-04-26 22:22:00,50.0,47.0,30.20,ENE,60,0.0,0.0,89,0.00,,,0.00,,2013-04-27 05:22:00,
2013-04-26 22:32:00,50.0,47.0,30.20,ENE,60,0.0,0.0,89,0.00,,,0.00,,2013-04-27 05:32:00,
2013-04-26 22:42:00,50.0,47.0,30.20,ENE,60,0.0,0.0,89,0.00,,,0.00,,2013-04-27 05:42:00,
2013-04-26 22:52:00,50.0,47.0,30.20,ENE,60,0.0,0.0,89,0.00,,,0.00,,2013-04-27 05:52:00,
2013-04-26 23:01:00,50.0,47.0,30.20,ENE,60,0.0,0.0,89,0.00,,,0.00,,2013-04-27 06:01:00,